createdAt,value
2023-03-28T00:00:12.858Z,1.37
2023-03-28T00:03:19.306Z,1.50
2023-03-28T00:06:22.145Z,1.27
2023-03-28T00:09:26.048Z,1.50
2023-03-28T00:12:28.839Z,1.53
2023-03-28T00:15:31.092Z,1.37
2023-03-28T00:18:37.768Z,1.50
2023-03-28T00:21:41.748Z,1.90
2023-03-28T00:24:44.794Z,1.37
2023-03-28T00:27:46.708Z,1.33
2023-03-28T00:30:48.579Z,1.37
2023-03-28T00:33:50.649Z,1.53
2023-03-28T00:36:54.183Z,1.60
2023-03-28T00:39:56.370Z,2.00
2023-03-28T00:42:58.460Z,1.40
2023-03-28T00:46:09.067Z,1.50
2023-03-28T00:49:21.603Z,1.57
2023-03-28T00:52:26.018Z,1.57
2023-03-28T00:55:42.219Z,1.47
2023-03-28T00:58:45.202Z,1.20
2023-03-28T01:01:47.487Z,1.50
2023-03-28T01:04:56.396Z,1.30
2023-03-28T01:08:17.170Z,1.20
2023-03-28T01:11:19.795Z,1.53
2023-03-28T01:14:23.845Z,1.53
2023-03-28T01:17:26.414Z,1.60
2023-03-28T01:20:46.936Z,1.50
2023-03-28T01:24:10.883Z,1.43
2023-03-28T01:27:23.753Z,1.53
2023-03-28T01:30:46.240Z,1.43
2023-03-28T01:33:59.916Z,1.60
2023-03-28T01:37:10.831Z,1.43
2023-03-28T01:40:36.477Z,1.40
2023-03-28T01:44:03.515Z,1.47
2023-03-28T01:47:20.105Z,1.60
2023-03-28T01:50:29.714Z,1.37
2023-03-28T01:53:48.012Z,1.43
2023-03-28T01:57:02.398Z,1.00
2023-03-28T02:00:13.040Z,1.37
2023-03-28T02:03:32.158Z,1.40
2023-03-28T02:06:36.324Z,1.30
2023-03-28T02:09:39.610Z,1.23
2023-03-28T02:12:48.545Z,1.47
2023-03-28T02:15:54.890Z,1.20
2023-03-28T02:18:58.773Z,1.30
2023-03-28T02:22:16.066Z,1.53
2023-03-28T02:25:18.939Z,1.83
2023-03-28T02:28:22.620Z,1.40
2023-03-28T02:31:25.162Z,1.67
2023-03-28T02:34:27.260Z,2.10
2023-03-28T02:37:38.165Z,1.30
2023-03-28T02:41:18.933Z,1.60
2023-03-28T02:44:57.846Z,1.53
2023-03-28T02:48:02.667Z,1.60
2023-03-28T02:51:30.278Z,1.27
2023-03-28T02:54:44.522Z,1.43
2023-03-28T02:57:50.586Z,1.33
2023-03-28T03:00:52.612Z,1.30
2023-03-28T03:03:58.126Z,1.33
2023-03-28T03:07:03.934Z,1.60
2023-03-28T03:10:08.491Z,1.43
2023-03-28T03:13:10.553Z,1.80
2023-03-28T03:16:12.497Z,1.37
2023-03-28T03:19:14.585Z,1.40
2023-03-28T03:22:21.043Z,1.53
2023-03-28T03:25:23.597Z,1.40
2023-03-28T03:28:25.411Z,1.57
2023-03-28T03:31:27.784Z,1.17
2023-03-28T03:34:29.649Z,1.20
2023-03-28T03:37:31.689Z,1.27
2023-03-28T03:40:33.499Z,1.60
2023-03-28T03:43:35.381Z,0.83
2023-03-28T03:46:37.291Z,1.70
2023-03-28T03:49:39.210Z,1.40
2023-03-28T03:52:41.071Z,1.67
2023-03-28T03:55:43.606Z,1.33
2023-03-28T03:58:45.813Z,1.53
2023-03-28T04:01:47.763Z,1.57
2023-03-28T04:04:49.674Z,1.50
2023-03-28T04:07:52.335Z,1.40
2023-03-28T04:10:54.576Z,1.50
2023-03-28T04:13:56.533Z,1.67
2023-03-28T04:16:58.463Z,1.90
2023-03-28T04:20:02.010Z,1.80
2023-03-28T04:23:06.169Z,1.87
2023-03-28T04:26:09.072Z,1.77
2023-03-28T04:29:11.370Z,1.73
2023-03-28T04:32:13.364Z,1.47
2023-03-28T04:35:16.673Z,1.60
2023-03-28T04:38:20.617Z,1.77
2023-03-28T04:41:24.216Z,1.80
2023-03-28T04:44:26.583Z,1.93
2023-03-28T04:47:28.435Z,1.53
2023-03-28T04:50:30.499Z,2.27
2023-03-28T04:53:32.827Z,1.57
2023-03-28T04:56:35.102Z,1.40
2023-03-28T04:59:36.948Z,1.23
2023-03-28T05:02:39.327Z,1.83
2023-03-28T05:05:41.847Z,1.97
2023-03-28T05:08:44.088Z,2.07
2023-03-28T05:11:46.624Z,2.03
2023-03-28T05:14:48.550Z,1.90
2023-03-28T05:17:50.726Z,1.80
2023-03-28T05:20:52.776Z,2.20
2023-03-28T05:23:54.631Z,1.60
2023-03-28T05:26:57.005Z,1.93
2023-03-28T05:29:58.808Z,2.00
2023-03-28T05:33:01.197Z,2.20
2023-03-28T05:36:04.860Z,1.80
2023-03-28T05:39:07.352Z,1.97
2023-03-28T05:42:09.412Z,3.33
2023-03-28T05:45:15.097Z,2.33
2023-03-28T05:48:17.203Z,2.10
2023-03-28T05:51:19.148Z,1.80
2023-03-28T05:54:21.060Z,1.80
2023-03-28T05:57:23.401Z,2.17
2023-03-28T06:00:25.491Z,2.40
2023-03-28T06:03:28.558Z,2.30
2023-03-28T06:06:31.075Z,2.10
2023-03-28T06:09:35.088Z,2.50
2023-03-28T06:12:37.006Z,2.40
2023-03-28T06:15:39.716Z,2.50
2023-03-28T06:18:41.576Z,2.40
2023-03-28T06:21:44.361Z,2.33
2023-03-28T06:24:46.210Z,1.50
2023-03-28T06:27:48.097Z,2.67
2023-03-28T06:30:50.847Z,1.90
2023-03-28T06:33:54.354Z,1.97
2023-03-28T06:36:56.622Z,1.70
2023-03-28T06:39:59.554Z,2.20
2023-03-28T06:43:01.410Z,2.07
2023-03-28T06:46:03.556Z,2.20
2023-03-28T06:49:08.155Z,1.77
2023-03-28T06:52:10.134Z,2.40
2023-03-28T06:55:12.153Z,1.83
2023-03-28T06:58:14.098Z,1.70
2023-03-28T07:01:16.030Z,1.40
2023-03-28T07:04:18.046Z,1.40
2023-03-28T07:07:20.060Z,1.37
2023-03-28T07:10:22.972Z,2.10
2023-03-28T07:13:24.930Z,1.50
2023-03-28T07:16:26.866Z,1.30
2023-03-28T07:19:28.771Z,1.30
2023-03-28T07:22:31.517Z,1.60
2023-03-28T07:25:35.074Z,0.83
2023-03-28T07:28:39.944Z,1.30
2023-03-28T07:31:41.987Z,1.47
2023-03-28T07:34:44.022Z,1.40
2023-03-28T07:37:45.850Z,1.30
2023-03-28T07:40:48.357Z,1.20
2023-03-28T07:43:50.603Z,1.20
2023-03-28T07:46:53.098Z,0.97
2023-03-28T07:49:54.986Z,1.13
2023-03-28T07:53:01.517Z,1.43
2023-03-28T07:56:05.076Z,1.10
2023-03-28T07:59:07.125Z,0.80
2023-03-28T08:02:12.085Z,1.13
2023-03-28T08:05:13.991Z,1.07
2023-03-28T08:08:15.954Z,0.97
2023-03-28T08:11:17.866Z,1.10
2023-03-28T08:14:19.787Z,1.00
2023-03-28T08:17:22.183Z,0.90
2023-03-28T08:20:24.053Z,1.03
2023-03-28T08:23:27.021Z,0.80
2023-03-28T08:26:29.111Z,0.93
2023-03-28T08:29:31.640Z,1.30
2023-03-28T08:32:33.614Z,0.90
2023-03-28T08:35:35.996Z,1.13
2023-03-28T08:38:37.907Z,0.90
2023-03-28T08:41:45.579Z,1.00
2023-03-28T08:45:01.411Z,0.90
2023-03-28T08:48:33.278Z,1.03
2023-03-28T08:51:40.916Z,1.23
2023-03-28T08:54:51.249Z,0.70
2023-03-28T08:57:54.785Z,1.00
2023-03-28T09:00:56.760Z,1.00
2023-03-28T09:04:00.356Z,1.23
2023-03-28T09:07:17.315Z,1.00
2023-03-28T09:10:29.410Z,0.73
2023-03-28T09:14:02.521Z,0.90
2023-03-28T09:17:26.254Z,1.00
2023-03-28T09:20:37.011Z,0.60
2023-03-28T09:24:05.006Z,0.60
2023-03-28T09:27:18.520Z,1.30
2023-03-28T09:30:23.530Z,1.00
2023-03-28T09:33:30.676Z,1.20
2023-03-28T09:36:45.299Z,1.03
2023-03-28T09:39:54.536Z,1.27
2023-03-28T09:42:57.279Z,3.07
2023-03-28T09:46:06.142Z,1.10
2023-03-28T09:49:18.335Z,2.60
2023-03-28T09:52:21.758Z,3.00
2023-03-28T09:55:29.706Z,2.47
2023-03-28T09:58:50.108Z,0.90
2023-03-28T10:01:56.678Z,1.50
2023-03-28T10:05:04.090Z,1.17
2023-03-28T10:08:40.994Z,1.20
2023-03-28T10:12:00.599Z,2.00
2023-03-28T10:15:02.770Z,0.80
2023-03-28T10:18:05.978Z,0.90
2023-03-28T10:21:15.532Z,1.40
2023-03-28T10:24:21.210Z,1.87
2023-03-28T10:27:35.914Z,1.70
2023-03-28T10:30:38.179Z,0.70
2023-03-28T10:33:44.148Z,1.00
2023-03-28T10:36:46.310Z,0.90
2023-03-28T10:39:59.630Z,0.80
2023-03-28T10:43:01.663Z,1.50
2023-03-28T10:46:08.273Z,1.97
2023-03-28T10:49:15.450Z,1.93
2023-03-28T10:52:43.021Z,1.00
2023-03-28T10:56:00.798Z,1.00
2023-03-28T10:59:22.194Z,1.33
2023-03-28T11:02:46.057Z,1.70
2023-03-28T11:06:08.933Z,1.00
2023-03-28T11:09:36.773Z,1.07
2023-03-28T11:13:07.608Z,3.27
2023-03-28T11:16:37.098Z,1.10
2023-03-28T11:19:57.084Z,2.17
2023-03-28T11:23:20.610Z,1.37
2023-03-28T11:26:50.337Z,1.10
2023-03-28T11:30:14.995Z,0.80
2023-03-28T11:33:21.722Z,0.90
2023-03-28T11:36:39.086Z,1.00
2023-03-28T11:39:49.216Z,1.33
2023-03-28T11:43:04.246Z,0.90
2023-03-28T11:46:14.278Z,0.90
2023-03-28T11:49:23.403Z,1.10
2023-03-28T11:53:26.816Z,0.93
2023-03-28T11:56:40.862Z,1.10
2023-03-28T12:00:00.214Z,1.10
2023-03-28T12:03:17.583Z,1.10
2023-03-28T12:07:02.510Z,0.63
2023-03-28T12:10:20.195Z,0.63
2023-03-28T12:13:45.483Z,0.83
2023-03-28T12:16:49.932Z,0.70
2023-03-28T12:19:54.211Z,1.10
2023-03-28T12:23:03.907Z,0.80
2023-03-28T12:26:22.098Z,1.50
2023-03-28T12:29:46.957Z,1.67
2023-03-28T12:33:13.308Z,0.80
2023-03-28T12:36:35.448Z,0.87
2023-03-28T12:39:45.814Z,1.67
2023-03-28T12:42:49.092Z,1.00
2023-03-28T12:45:57.374Z,0.87
2023-03-28T12:49:02.685Z,1.10
2023-03-28T12:52:06.884Z,1.10
2023-03-28T12:55:29.431Z,0.90
2023-03-28T12:58:37.091Z,1.27
2023-03-28T13:01:47.465Z,1.30
2023-03-28T13:05:02.025Z,1.07
2023-03-28T13:08:15.731Z,1.07
2023-03-28T13:11:29.793Z,2.20
2023-03-28T13:14:41.345Z,1.50
2023-03-28T13:18:20.354Z,1.37
2023-03-28T13:21:43.069Z,1.70
2023-03-28T13:24:45.219Z,1.93
2023-03-28T13:27:51.642Z,1.37
2023-03-28T13:31:04.707Z,1.10
2023-03-28T13:34:07.368Z,0.87
2023-03-28T13:37:24.239Z,1.10
2023-03-28T13:40:51.895Z,1.17
2023-03-28T13:43:58.285Z,1.10
2023-03-28T13:47:00.364Z,1.30
2023-03-28T13:50:26.897Z,1.03
2023-03-28T13:53:44.690Z,1.20
2023-03-28T13:56:50.462Z,1.20
2023-03-28T13:59:58.828Z,1.07
2023-03-28T14:03:06.250Z,1.27
2023-03-28T14:06:22.978Z,1.30
2023-03-28T14:09:30.707Z,1.00
2023-03-28T14:12:32.658Z,1.00
2023-03-28T14:15:36.507Z,0.87
2023-03-28T14:18:42.046Z,1.10
2023-03-28T14:21:47.649Z,1.10
2023-03-28T14:24:55.416Z,1.77
2023-03-28T14:27:57.515Z,0.77
2023-03-28T14:31:00.119Z,0.77
2023-03-28T14:34:24.269Z,1.03
2023-03-28T14:37:30.031Z,1.17
2023-03-28T14:40:37.484Z,0.93
2023-03-28T14:43:40.394Z,1.20
2023-03-28T14:46:43.388Z,1.80
2023-03-28T14:49:46.045Z,0.90
2023-03-28T14:52:48.368Z,1.03
2023-03-28T14:55:52.358Z,1.30
2023-03-28T14:58:58.108Z,1.07
2023-03-28T15:02:02.108Z,1.10
2023-03-28T15:05:08.389Z,0.97
2023-03-28T15:08:34.695Z,0.97
2023-03-28T15:11:38.354Z,0.90
2023-03-28T15:14:50.251Z,0.90
2023-03-28T15:18:49.712Z,0.80
2023-03-28T15:21:36.380Z,0.60
2023-03-28T15:24:38.661Z,0.90
2023-03-28T15:28:43.074Z,0.83
2023-03-28T15:31:45.357Z,1.00
2023-03-28T15:34:55.752Z,0.80
2023-03-28T15:38:03.246Z,0.90
2023-03-28T15:41:42.516Z,0.93
2023-03-28T15:44:57.854Z,0.70
2023-03-28T15:47:59.916Z,0.93
2023-03-28T15:51:20.083Z,0.80
2023-03-28T15:54:31.193Z,0.83
2023-03-28T15:57:37.023Z,0.80
2023-03-28T16:04:37.244Z,0.87
2023-03-28T16:07:48.566Z,0.80
2023-03-28T16:10:51.000Z,1.00
2023-03-28T16:13:53.583Z,1.00
2023-03-28T16:16:56.973Z,1.00
2023-03-28T16:19:59.351Z,0.70
2023-03-28T16:23:01.837Z,0.93
2023-03-28T16:26:04.929Z,1.10
2023-03-28T16:29:07.149Z,1.90
2023-03-28T16:32:13.419Z,2.33
2023-03-28T16:35:15.590Z,2.80
2023-03-28T16:38:17.809Z,1.50
2023-03-28T16:41:20.072Z,1.70
2023-03-28T16:44:22.293Z,2.90
2023-03-28T16:47:24.236Z,1.10
2023-03-28T16:50:26.317Z,1.97
2023-03-28T16:53:28.220Z,1.47
2023-03-28T16:56:30.508Z,1.53
2023-03-28T16:59:32.456Z,0.80
2023-03-28T17:02:37.594Z,1.17
2023-03-28T17:05:39.787Z,1.10
2023-03-28T17:08:41.635Z,0.80
2023-03-28T17:11:43.484Z,0.73
2023-03-28T17:14:46.328Z,1.00
2023-03-28T17:17:48.270Z,1.10
2023-03-28T17:21:05.729Z,0.90
2023-03-28T17:24:11.684Z,1.03
2023-03-28T17:27:14.775Z,1.20
2023-03-28T17:30:16.739Z,3.37
2023-03-28T17:33:19.252Z,2.20
2023-03-28T17:36:28.851Z,3.70
2023-03-28T17:39:32.147Z,1.63
2023-03-28T17:42:34.041Z,0.90
2023-03-28T17:45:37.968Z,1.20
2023-03-28T17:48:42.353Z,0.90
2023-03-28T17:51:45.662Z,0.93
2023-03-28T17:54:50.301Z,0.93
2023-03-28T17:57:54.406Z,1.00
2023-03-28T18:00:56.598Z,1.90
2023-03-28T18:03:58.545Z,1.50
2023-03-28T18:07:00.585Z,1.80
2023-03-28T18:10:03.284Z,1.53
2023-03-28T18:13:05.111Z,1.20
2023-03-28T18:16:11.806Z,1.27
2023-03-28T18:19:18.143Z,1.00
2023-03-28T18:22:20.836Z,0.90
2023-03-28T18:25:23.403Z,0.90
2023-03-28T18:28:25.322Z,1.03
2023-03-28T18:31:28.460Z,1.00
2023-03-28T18:34:30.605Z,0.87
2023-03-28T18:37:33.104Z,1.10
2023-03-28T18:40:37.851Z,0.80
2023-03-28T18:43:41.525Z,1.00
2023-03-28T18:46:43.665Z,0.90
2023-03-28T18:49:46.568Z,0.83
2023-03-28T18:52:48.701Z,0.90
2023-03-28T18:55:51.906Z,0.93
2023-03-28T18:58:53.770Z,0.80
2023-03-28T19:01:55.931Z,0.80
2023-03-28T19:04:58.337Z,1.00
2023-03-28T19:08:00.255Z,0.80
2023-03-28T19:11:10.439Z,1.10
2023-03-28T19:14:12.392Z,0.97
2023-03-28T19:17:16.614Z,1.07
2023-03-28T19:20:18.555Z,3.03
2023-03-28T19:23:20.762Z,2.43
2023-03-28T19:26:23.116Z,1.30
2023-03-28T19:29:25.043Z,1.10
2023-03-28T19:32:27.005Z,1.00
2023-03-28T19:35:28.976Z,0.83
2023-03-28T19:38:35.712Z,0.97
2023-03-28T19:41:37.931Z,1.60
2023-03-28T19:44:40.042Z,0.73
2023-03-28T19:47:42.558Z,1.03
2023-03-28T19:50:44.702Z,0.80
2023-03-28T19:53:46.990Z,0.90
2023-03-28T19:56:49.002Z,0.80
2023-03-28T19:59:51.256Z,0.83
2023-03-28T20:02:53.081Z,1.13
2023-03-28T20:05:55.004Z,0.53
2023-03-28T20:08:56.868Z,1.00
2023-03-28T20:11:58.855Z,1.00
2023-03-28T20:15:01.281Z,0.77
2023-03-28T20:18:04.150Z,0.60
2023-03-28T20:21:08.709Z,1.10
2023-03-28T20:24:11.326Z,0.90
2023-03-28T20:27:13.179Z,0.80
2023-03-28T20:30:15.183Z,0.87
2023-03-28T20:33:17.400Z,0.97
2023-03-28T20:36:20.408Z,0.83
2023-03-28T20:39:23.838Z,0.83
2023-03-28T20:42:30.750Z,0.80
2023-03-28T20:45:33.946Z,0.90
2023-03-28T20:48:37.296Z,0.90
2023-03-28T20:51:39.921Z,0.90
2023-03-28T20:54:42.364Z,1.00
2023-03-28T20:57:44.286Z,0.80
2023-03-28T21:00:46.767Z,1.13
2023-03-28T21:03:50.149Z,0.80
2023-03-28T21:07:00.536Z,1.03
2023-03-28T21:10:04.251Z,1.20
2023-03-28T21:13:06.256Z,0.90
2023-03-28T21:16:08.800Z,0.90
2023-03-28T21:19:10.773Z,1.10
2023-03-28T21:22:12.601Z,1.00
2023-03-28T21:25:14.921Z,1.33
2023-03-28T21:28:16.821Z,0.70
2023-03-28T21:31:25.888Z,0.70
2023-03-28T21:34:34.230Z,0.60
2023-03-28T21:37:36.262Z,0.70
2023-03-28T21:40:38.140Z,0.80
2023-03-28T21:43:40.319Z,0.60
2023-03-28T21:46:42.207Z,0.70
2023-03-28T21:49:46.264Z,0.60
2023-03-28T21:52:48.106Z,0.50
2023-03-28T21:55:51.563Z,0.40
2023-03-28T21:58:54.139Z,0.40
2023-03-28T22:01:56.182Z,0.50
2023-03-28T22:04:58.216Z,0.40
2023-03-28T22:08:00.131Z,0.50
2023-03-28T22:11:04.427Z,0.60
2023-03-28T22:14:06.606Z,0.40
2023-03-28T22:17:09.425Z,0.70
2023-03-28T22:20:13.250Z,0.50
2023-03-28T22:23:15.185Z,0.70
2023-03-28T22:26:18.289Z,0.40
2023-03-28T22:29:20.651Z,0.57
2023-03-28T22:32:22.889Z,0.60
2023-03-28T22:35:24.902Z,0.40
2023-03-28T22:38:27.185Z,0.67
2023-03-28T22:41:31.908Z,0.50
2023-03-28T22:44:34.216Z,0.57
2023-03-28T22:47:39.605Z,0.53
2023-03-28T22:50:44.388Z,0.50
2023-03-28T22:53:47.526Z,0.70
2023-03-28T22:56:50.219Z,0.67
2023-03-28T22:59:53.285Z,0.50
2023-03-28T23:02:55.263Z,0.50
2023-03-28T23:06:01.829Z,0.57
2023-03-28T23:09:06.676Z,0.70
2023-03-28T23:12:09.009Z,0.80
2023-03-28T23:15:11.617Z,0.70
2023-03-28T23:18:14.691Z,0.60
2023-03-28T23:21:17.374Z,0.80
2023-03-28T23:24:19.518Z,0.37
2023-03-28T23:27:21.549Z,0.60
2023-03-28T23:30:23.462Z,0.60
2023-03-28T23:33:25.328Z,0.60
2023-03-28T23:36:30.299Z,0.70
2023-03-28T23:39:32.640Z,1.00
2023-03-28T23:42:34.514Z,0.70
2023-03-28T23:45:37.883Z,0.63
2023-03-28T23:48:39.823Z,0.50
2023-03-28T23:51:42.702Z,0.80
2023-03-28T23:54:44.570Z,0.80
2023-03-28T23:57:48.258Z,0.60
